Weather at Salt Lake City International Airport

Public forecast

Using degrees Fahrenheit for public forecast. Weather courtesy of forecast.io.

Current aviation weather report (METAR) for Salt Lake City International Airport

Retrieved 2021/10/22 05:54 UTC (52 minutes ago):

KSLC 220554Z 12007KT 10SM FEW140 FEW230 09/04 A3018 RMK AO2 SLP198 T00890044 10167 20089 58007

Aviation forecast (TAF) for Salt Lake City International Airport

Retrieved 2021/10/22 06:22 UTC (24 minutes ago):

TAF KSLC 220520Z 2206/2312 15005KT P6SM FEW120 FEW250 FM221800 17015G25KT P6SM FEW120 SCT180 FM230100 17010KT P6SM SCT120 SCT250 FM230900 27007KT P6SM FEW100 SCT250